Southaven, MS (38672)

4:32 AM CDT on May 26, 2015 (GMT -0500)
Castle Ridge | | Change Station
CLOSE
Current Station
Personal Weather Station
Location: Southaven, MS
Elevation: 395 ft
Nearby Weather Stations

Elev 395 ft 34.92 °N, 89.96 °W | Updated 6 seconds ago

Rain
Rain
68.2 °F
Feels Like 68.2 °F
N
2.9
Wind Variable Wind from East
Gusts 4.9 mph

Today
High -- | Low -- °F
--% Chance of Precip.
Yesterday
High -- | Low -- °F
Precip. -- in
5:49 AM 8:04 PM
First Quarter, 56% visible
Pressure 29.92 in
Visibility 5.0 miles
Clouds Scattered Clouds 600 ft
Mostly Cloudy 5000 ft
Overcast 9000 ft
Dew Point 67 °F
Humidity 96%
Rainfall 0.17 in
Snow Depth Not available.
UV 0.0 out of 12
Pollen .70 out of 12
Air Quality Not available.
Flu Activity No Activity
METAR KMEM 260854Z 15010KT 5SM BR SCT006 BKN050 OVC090 22/20 A2993 RMK AO2 RAE54 SLP131 P0010 60010 T02170200 56015

More Conditions Fewer Conditions

Pressure 29.92 in
Visibility 5.0 miles
Clouds Scattered Clouds 600 ft
Mostly Cloudy 5000 ft
Overcast 9000 ft
Dew Point 67 °F
Humidity 96%
Rainfall 0.17 in
Snow Depth Not available.
UV 0.0 out of 12
Pollen .70 out of 12
Air Quality Not available.
Flu Activity No Activity
METAR KMEM 260854Z 15010KT 5SM BR SCT006 BKN050 OVC090 22/20 A2993 RMK AO2 RAE54 SLP131 P0010 60010 T02170200 56015

More Conditions Fewer Conditions

10-Day Weather Forecast

Almanac

Astronomy

May. 26, 2015 Rise Set
Actual Time
Civil Twilight
Nautical Twilight
Astronomical Twilight
Moon
Length of Visible Light
Length of Day
Tomorrow will be .
, % of the Moon is Illuminated

Today's Extremes

State Highs State Lows

Community

WunderPhotos

Upload Photos

1,824,302 photos uploaded!

WunderBlogs® & News

Nearby

Air Quality

  Air Quality AQ Index Pollutant
Not available.

Snow Depth

Station Depth Elevation

Earthquake Activity

City Distance Mag. Time & Date
Minimum magnitude displayed is 2.5.

Coastal Water Temperatures

Place Temperature

Stations

Nearby Weather Stations

Station Location Temp. Windchill Dew Point Humidity Wind Precip. Elev Updated Type